sensor_id;sensor_type;location;lat;lon;timestamp;pressure;altitude;pressure_sealevel;temperature;humidity
24422;BME280;12600;53.326;-6.298;2023-04-07T00:01:43;101679.56;;;10.24;60.08
24422;BME280;12600;53.326;-6.298;2023-04-07T00:04:33;101687.47;;;10.25;59.95
24422;BME280;12600;53.326;-6.298;2023-04-07T00:07:22;101683.09;;;10.24;59.88
24422;BME280;12600;53.326;-6.298;2023-04-07T00:10:13;101684.47;;;10.27;59.49
24422;BME280;12600;53.326;-6.298;2023-04-07T00:13:03;101688.59;;;10.14;59.82
24422;BME280;12600;53.326;-6.298;2023-04-07T00:15:52;101689.97;;;10.12;59.89
24422;BME280;12600;53.326;-6.298;2023-04-07T00:18:41;101687.84;;;10.03;60.14
24422;BME280;12600;53.326;-6.298;2023-04-07T00:21:31;101691.66;;;9.97;60.49
24422;BME280;12600;53.326;-6.298;2023-04-07T00:24:20;101667.69;;;9.89;60.06
24422;BME280;12600;53.326;-6.298;2023-04-07T00:27:22;101674.78;;;9.90;60.59
24422;BME280;12600;53.326;-6.298;2023-04-07T00:30:11;101670.66;;;9.93;60.05
24422;BME280;12600;53.326;-6.298;2023-04-07T00:33:02;101682.72;;;9.87;60.75
24422;BME280;12600;53.326;-6.298;2023-04-07T00:35:56;101676.16;;;9.82;60.54
24422;BME280;12600;53.326;-6.298;2023-04-07T00:38:45;101663.38;;;9.68;60.54
24422;BME280;12600;53.326;-6.298;2023-04-07T00:41:35;101678.13;;;9.67;60.62
24422;BME280;12600;53.326;-6.298;2023-04-07T00:44:25;101672.16;;;9.60;60.88
24422;BME280;12600;53.326;-6.298;2023-04-07T00:47:15;101661.25;;;9.55;61.28
24422;BME280;12600;53.326;-6.298;2023-04-07T00:50:05;101668.88;;;9.52;61.32
24422;BME280;12600;53.326;-6.298;2023-04-07T00:52:55;101670.53;;;9.53;61.75
24422;BME280;12600;53.326;-6.298;2023-04-07T00:55:44;101673.53;;;9.52;61.32
24422;BME280;12600;53.326;-6.298;2023-04-07T00:58:34;101666.19;;;9.47;61.90
24422;BME280;12600;53.326;-6.298;2023-04-07T01:01:29;101667.25;;;9.51;61.80
24422;BME280;12600;53.326;-6.298;2023-04-07T01:04:28;101668.59;;;9.54;61.72
24422;BME280;12600;53.326;-6.298;2023-04-07T01:07:31;101666.16;;;9.52;61.49
24422;BME280;12600;53.326;-6.298;2023-04-07T01:10:41;101669.16;;;9.56;61.37
24422;BME280;12600;53.326;-6.298;2023-04-07T01:13:40;101659.34;;;9.50;62.00
24422;BME280;12600;53.326;-6.298;2023-04-07T01:16:45;101658.25;;;9.51;62.01
24422;BME280;12600;53.326;-6.298;2023-04-07T01:19:39;101655.81;;;9.44;61.37
24422;BME280;12600;53.326;-6.298;2023-04-07T01:22:41;101664.56;;;9.46;61.65
24422;BME280;12600;53.326;-6.298;2023-04-07T01:25:52;101667.28;;;9.46;62.11
24422;BME280;12600;53.326;-6.298;2023-04-07T01:28:59;101664.56;;;9.41;63.08
24422;BME280;12600;53.326;-6.298;2023-04-07T01:31:54;101655.84;;;9.29;63.14
24422;BME280;12600;53.326;-6.298;2023-04-07T01:34:48;101663.47;;;9.37;62.32
24422;BME280;12600;53.326;-6.298;2023-04-07T01:37:39;101661.88;;;9.31;61.79
24422;BME280;12600;53.326;-6.298;2023-04-07T01:40:29;101663.47;;;9.37;61.47
24422;BME280;12600;53.326;-6.298;2023-04-07T01:43:22;101648.78;;;9.18;61.60
24422;BME280;12600;53.326;-6.298;2023-04-07T01:46:11;101663.78;;;9.25;61.44
24422;BME280;12600;53.326;-6.298;2023-04-07T01:49:02;101668.38;;;9.30;61.39
24422;BME280;12600;53.326;-6.298;2023-04-07T01:51:52;101662.97;;;9.25;61.84
24422;BME280;12600;53.326;-6.298;2023-04-07T01:54:42;101658.31;;;9.25;61.64
24422;BME280;12600;53.326;-6.298;2023-04-07T01:57:32;101668.41;;;9.20;61.95
24422;BME280;12600;53.326;-6.298;2023-04-07T02:00:29;101663.53;;;9.17;62.17
24422;BME280;12600;53.326;-6.298;2023-04-07T02:03:23;101656.44;;;9.11;62.73
24422;BME280;12600;53.326;-6.298;2023-04-07T02:06:23;101667.88;;;9.13;62.35
24422;BME280;12600;53.326;-6.298;2023-04-07T02:09:16;101663.50;;;9.12;62.23
24422;BME280;12600;53.326;-6.298;2023-04-07T02:12:08;101665.41;;;9.06;62.02
24422;BME280;12600;53.326;-6.298;2023-04-07T02:15:07;101660.81;;;9.02;61.62
24422;BME280;12600;53.326;-6.298;2023-04-07T02:17:59;101660.81;;;8.96;61.33
24422;BME280;12600;53.326;-6.298;2023-04-07T02:20:50;101663.00;;;8.94;61.88
24422;BME280;12600;53.326;-6.298;2023-04-07T02:23:41;101660.25;;;8.89;62.29
24422;BME280;12600;53.326;-6.298;2023-04-07T02:26:33;101661.88;;;8.80;62.87
24422;BME280;12600;53.326;-6.298;2023-04-07T02:29:22;101663.53;;;8.76;62.81
24422;BME280;12600;53.326;-6.298;2023-04-07T02:32:12;101664.63;;;8.80;62.74
24422;BME280;12600;53.326;-6.298;2023-04-07T02:35:01;101665.72;;;8.79;62.69
24422;BME280;12600;53.326;-6.298;2023-04-07T02:37:51;101664.34;;;8.77;62.57
24422;BME280;12600;53.326;-6.298;2023-04-07T02:40:45;101658.09;;;8.76;62.66
24422;BME280;12600;53.326;-6.298;2023-04-07T02:43:34;101660.00;;;8.76;63.13
24422;BME280;12600;53.326;-6.298;2023-04-07T02:46:23;101658.34;;;8.69;62.99
24422;BME280;12600;53.326;-6.298;2023-04-07T02:49:13;101659.72;;;8.67;63.58
24422;BME280;12600;53.326;-6.298;2023-04-07T02:52:02;101646.06;;;8.57;63.50
24422;BME280;12600;53.326;-6.298;2023-04-07T02:54:51;101654.00;;;8.58;63.33
24422;BME280;12600;53.326;-6.298;2023-04-07T02:57:46;101659.69;;;8.57;63.94
24422;BME280;12600;53.326;-6.298;2023-04-07T03:00:54;101655.59;;;8.49;63.74
24422;BME280;12600;53.326;-6.298;2023-04-07T03:03:47;101658.06;;;8.51;65.34
24422;BME280;12600;53.326;-6.298;2023-04-07T03:06:41;101658.25;;;8.34;64.32
24422;BME280;12600;53.326;-6.298;2023-04-07T03:09:34;101650.94;;;8.34;64.94
24422;BME280;12600;53.326;-6.298;2023-04-07T03:12:23;101657.44;;;8.33;64.64
24422;BME280;12600;53.326;-6.298;2023-04-07T03:15:14;101647.91;;;8.26;65.03
24422;BME280;12600;53.326;-6.298;2023-04-07T03:18:07;101640.28;;;8.23;65.31
24422;BME280;12600;53.326;-6.298;2023-04-07T03:20:59;101655.00;;;8.27;65.39
24422;BME280;12600;53.326;-6.298;2023-04-07T03:23:50;101647.66;;;8.27;65.09
24422;BME280;12600;53.326;-6.298;2023-04-07T03:26:40;101647.09;;;8.25;65.14
24422;BME280;12600;53.326;-6.298;2023-04-07T03:29:45;101652.53;;;8.25;65.36
24422;BME280;12600;53.326;-6.298;2023-04-07T03:32:38;101648.44;;;8.23;64.89
24422;BME280;12600;53.326;-6.298;2023-04-07T03:35:27;101640.03;;;8.19;66.15
24422;BME280;12600;53.326;-6.298;2023-04-07T03:38:16;101647.88;;;8.16;65.23
24422;BME280;12600;53.326;-6.298;2023-04-07T03:41:06;101646.81;;;8.11;65.62
24422;BME280;12600;53.326;-6.298;2023-04-07T03:43:58;101645.69;;;8.07;66.31
24422;BME280;12600;53.326;-6.298;2023-04-07T03:46:48;101655.22;;;8.15;66.02
24422;BME280;12600;53.326;-6.298;2023-04-07T03:49:41;101647.63;;;8.12;65.24
24422;BME280;12600;53.326;-6.298;2023-04-07T03:52:31;101644.88;;;8.07;65.51
24422;BME280;12600;53.326;-6.298;2023-04-07T03:55:29;101653.84;;;8.02;65.99
24422;BME280;12600;53.326;-6.298;2023-04-07T03:58:26;101652.47;;;8.00;65.98
24422;BME280;12600;53.326;-6.298;2023-04-07T04:01:16;101650.28;;;7.97;66.24
24422;BME280;12600;53.326;-6.298;2023-04-07T04:04:12;101646.22;;;7.94;66.70
24422;BME280;12600;53.326;-6.298;2023-04-07T04:07:02;101649.72;;;7.90;66.33
24422;BME280;12600;53.326;-6.298;2023-04-07T04:10:00;101649.44;;;7.86;66.23
24422;BME280;12600;53.326;-6.298;2023-04-07T04:12:54;101640.72;;;7.84;66.31
24422;BME280;12600;53.326;-6.298;2023-04-07T04:15:43;101642.63;;;7.78;66.81
24422;BME280;12600;53.326;-6.298;2023-04-07T04:18:35;101643.19;;;7.91;66.72
24422;BME280;12600;53.326;-6.298;2023-04-07T04:21:26;101650.25;;;7.87;66.23
24422;BME280;12600;53.326;-6.298;2023-04-07T04:24:17;101649.44;;;7.86;66.77
24422;BME280;12600;53.326;-6.298;2023-04-07T04:27:07;101645.88;;;7.85;66.60
24422;BME280;12600;53.326;-6.298;2023-04-07T04:29:56;101638.28;;;7.88;66.57
24422;BME280;12600;53.326;-6.298;2023-04-07T04:32:55;101638.56;;;7.86;66.79
24422;BME280;12600;53.326;-6.298;2023-04-07T04:35:53;101646.41;;;7.82;67.21
24422;BME280;12600;53.326;-6.298;2023-04-07T04:38:44;101641.53;;;7.79;67.18
24422;BME280;12600;53.326;-6.298;2023-04-07T04:41:38;101639.63;;;7.80;66.56
24422;BME280;12600;53.326;-6.298;2023-04-07T04:44:29;101648.06;;;7.78;66.97
24422;BME280;12600;53.326;-6.298;2023-04-07T04:47:20;101644.50;;;7.78;66.66
24422;BME280;12600;53.326;-6.298;2023-04-07T04:50:11;101651.00;;;7.77;67.16
24422;BME280;12600;53.326;-6.298;2023-04-07T04:53:02;101651.84;;;7.77;66.84
24422;BME280;12600;53.326;-6.298;2023-04-07T04:55:51;101649.63;;;7.69;66.55
24422;BME280;12600;53.326;-6.298;2023-04-07T04:58:45;101640.94;;;7.72;67.26
24422;BME280;12600;53.326;-6.298;2023-04-07T05:01:50;101632.47;;;7.64;66.80
24422;BME280;12600;53.326;-6.298;2023-04-07T05:04:40;101642.81;;;7.67;67.67
24422;BME280;12600;53.326;-6.298;2023-04-07T05:07:40;101650.16;;;7.66;67.31
24422;BME280;12600;53.326;-6.298;2023-04-07T05:10:36;101646.34;;;7.62;66.87
24422;BME280;12600;53.326;-6.298;2023-04-07T05:13:28;101650.41;;;7.60;66.83
24422;BME280;12600;53.326;-6.298;2023-04-07T05:16:22;101645.22;;;7.58;67.55
24422;BME280;12600;53.326;-6.298;2023-04-07T05:19:12;101649.00;;;7.52;67.76
24422;BME280;12600;53.326;-6.298;2023-04-07T05:22:01;101644.38;;;7.52;68.12
24422;BME280;12600;53.326;-6.298;2023-04-07T05:24:59;101653.34;;;7.48;67.84
24422;BME280;12600;53.326;-6.298;2023-04-07T05:27:48;101654.94;;;7.44;68.16
24422;BME280;12600;53.326;-6.298;2023-04-07T05:30:38;101652.50;;;7.42;68.48
24422;BME280;12600;53.326;-6.298;2023-04-07T05:33:29;101643.75;;;7.35;68.43
24422;BME280;12600;53.326;-6.298;2023-04-07T05:36:18;101657.66;;;7.39;68.95
24422;BME280;12600;53.326;-6.298;2023-04-07T05:39:12;101663.91;;;7.44;68.67
24422;BME280;12600;53.326;-6.298;2023-04-07T05:42:01;101659.81;;;7.42;68.76
24422;BME280;12600;53.326;-6.298;2023-04-07T05:44:51;101663.63;;;7.41;68.29
24422;BME280;12600;53.326;-6.298;2023-04-07T05:47:43;101662.28;;;7.43;68.80
24422;BME280;12600;53.326;-6.298;2023-04-07T05:50:36;101649.44;;;7.34;68.58
24422;BME280;12600;53.326;-6.298;2023-04-07T05:53:30;101665.81;;;7.44;68.61
24422;BME280;12600;53.326;-6.298;2023-04-07T05:56:19;101669.63;;;7.43;67.90
24422;BME280;12600;53.326;-6.298;2023-04-07T05:59:09;101658.69;;;7.38;68.99
24422;BME280;12600;53.326;-6.298;2023-04-07T06:01:59;101659.00;;;7.41;68.95
24422;BME280;12600;53.326;-6.298;2023-04-07T06:04:49;101664.72;;;7.45;69.01
24422;BME280;12600;53.326;-6.298;2023-04-07T06:07:41;101671.78;;;7.46;68.93
24422;BME280;12600;53.326;-6.298;2023-04-07T06:10:30;101665.25;;;7.42;68.32
24422;BME280;12600;53.326;-6.298;2023-04-07T06:13:19;101671.25;;;7.39;69.17
24422;BME280;12600;53.326;-6.298;2023-04-07T06:16:09;101658.69;;;7.38;69.07
24422;BME280;12600;53.326;-6.298;2023-04-07T06:18:58;101670.47;;;7.48;69.57
24422;BME280;12600;53.326;-6.298;2023-04-07T06:21:49;101670.19;;;7.50;69.27
24422;BME280;12600;53.326;-6.298;2023-04-07T06:24:39;101677.28;;;7.51;69.24
24422;BME280;12600;53.326;-6.298;2023-04-07T06:27:29;101665.63;;;7.55;69.05
24422;BME280;12600;53.326;-6.298;2023-04-07T06:30:19;101674.09;;;7.64;69.21
24422;BME280;12600;53.326;-6.298;2023-04-07T06:33:09;101679.50;;;7.59;69.87
24422;BME280;12600;53.326;-6.298;2023-04-07T06:36:00;101683.38;;;7.73;69.12
24422;BME280;12600;53.326;-6.298;2023-04-07T06:38:54;101673.84;;;7.71;68.82
24422;BME280;12600;53.326;-6.298;2023-04-07T06:41:46;101679.34;;;7.81;69.01
24422;BME280;12600;53.326;-6.298;2023-04-07T06:44:35;101685.06;;;7.84;69.13
24422;BME280;12600;53.326;-6.298;2023-04-07T06:47:26;101681.81;;;7.88;69.21
24422;BME280;12600;53.326;-6.298;2023-04-07T06:50:18;101687.56;;;7.96;69.01
24422;BME280;12600;53.326;-6.298;2023-04-07T06:53:09;101681.84;;;7.98;69.21
24422;BME280;12600;53.326;-6.298;2023-04-07T06:56:06;101669.34;;;8.02;69.15
24422;BME280;12600;53.326;-6.298;2023-04-07T06:58:56;101679.72;;;8.15;69.48
24422;BME280;12600;53.326;-6.298;2023-04-07T07:01:46;101683.06;;;8.27;69.71
24422;BME280;12600;53.326;-6.298;2023-04-07T07:04:38;101686.66;;;8.43;69.41
24422;BME280;12600;53.326;-6.298;2023-04-07T07:07:27;101677.16;;;8.61;69.65
24422;BME280;12600;53.326;-6.298;2023-04-07T07:10:17;101686.16;;;8.77;69.17
24422;BME280;12600;53.326;-6.298;2023-04-07T07:13:09;101692.69;;;9.01;69.46
24422;BME280;12600;53.326;-6.298;2023-04-07T07:16:04;101691.31;;;9.29;69.45
24422;BME280;12600;53.326;-6.298;2023-04-07T07:18:53;101691.28;;;9.49;68.69
24422;BME280;12600;53.326;-6.298;2023-04-07T07:21:43;101686.56;;;9.75;69.41
24422;BME280;12600;53.326;-6.298;2023-04-07T07:24:32;101693.53;;;10.12;69.80
24422;BME280;12600;53.326;-6.298;2023-04-07T07:27:22;101691.41;;;10.53;70.09
24422;BME280;12600;53.326;-6.298;2023-04-07T07:30:11;101697.75;;;10.83;70.67
24422;BME280;12600;53.326;-6.298;2023-04-07T07:33:02;101695.81;;;11.17;71.59
24422;BME280;12600;53.326;-6.298;2023-04-07T07:35:51;101695.06;;;11.65;71.77
24422;BME280;12600;53.326;-6.298;2023-04-07T07:38:41;101680.63;;;12.07;71.65
24422;BME280;12600;53.326;-6.298;2023-04-07T07:41:30;101700.50;;;12.55;71.86
24422;BME280;12600;53.326;-6.298;2023-04-07T07:44:19;101699.56;;;12.98;72.64
24422;BME280;12600;53.326;-6.298;2023-04-07T07:47:09;101692.38;;;13.34;72.65
24422;BME280;12600;53.326;-6.298;2023-04-07T07:50:00;101690.78;;;13.61;71.88
24422;BME280;12600;53.326;-6.298;2023-04-07T07:52:49;101689.38;;;13.91;71.27
24422;BME280;12600;53.326;-6.298;2023-04-07T07:55:39;101700.94;;;14.29;71.28
24422;BME280;12600;53.326;-6.298;2023-04-07T07:58:28;101697.78;;;14.72;70.41
24422;BME280;12600;53.326;-6.298;2023-04-07T08:01:17;101685.28;;;15.10;69.36
24422;BME280;12600;53.326;-6.298;2023-04-07T08:04:07;101683.63;;;15.32;68.77
24422;BME280;12600;53.326;-6.298;2023-04-07T08:06:58;101684.56;;;15.58;66.36
24422;BME280;12600;53.326;-6.298;2023-04-07T08:09:47;101678.91;;;15.63;64.61
24422;BME280;12600;53.326;-6.298;2023-04-07T08:12:36;101676.69;;;15.65;61.47
24422;BME280;12600;53.326;-6.298;2023-04-07T08:15:26;101672.00;;;15.75;61.03
24422;BME280;12600;53.326;-6.298;2023-04-07T08:18:15;101677.56;;;15.92;61.03
24422;BME280;12600;53.326;-6.298;2023-04-07T08:21:05;101683.41;;;15.90;59.30
24422;BME280;12600;53.326;-6.298;2023-04-07T08:23:56;101679.84;;;15.90;57.97
24422;BME280;12600;53.326;-6.298;2023-04-07T08:26:45;101686.03;;;16.04;58.51
24422;BME280;12600;53.326;-6.298;2023-04-07T08:29:35;101678.75;;;16.26;58.88
24422;BME280;12600;53.326;-6.298;2023-04-07T08:32:24;101681.88;;;16.41;57.83
24422;BME280;12600;53.326;-6.298;2023-04-07T08:35:13;101674.25;;;16.38;57.16
24422;BME280;12600;53.326;-6.298;2023-04-07T08:38:03;101673.09;;;16.48;56.54
24422;BME280;12600;53.326;-6.298;2023-04-07T08:40:59;101679.31;;;16.80;56.17
24422;BME280;12600;53.326;-6.298;2023-04-07T08:43:52;101675.50;;;17.19;56.90
24422;BME280;12600;53.326;-6.298;2023-04-07T08:46:41;101680.31;;;17.39;54.78
24422;BME280;12600;53.326;-6.298;2023-04-07T08:49:32;101679.44;;;17.56;54.25
24422;BME280;12600;53.326;-6.298;2023-04-07T08:52:33;101685.97;;;17.51;52.96
24422;BME280;12600;53.326;-6.298;2023-04-07T08:55:23;101675.03;;;17.55;49.83
24422;BME280;12600;53.326;-6.298;2023-04-07T08:58:15;101669.97;;;17.74;51.36
24422;BME280;12600;53.326;-6.298;2023-04-07T09:01:04;101670.38;;;17.85;50.69
24422;BME280;12600;53.326;-6.298;2023-04-07T09:03:56;101668.13;;;17.78;46.70
24422;BME280;12600;53.326;-6.298;2023-04-07T09:06:46;101671.72;;;17.79;46.74
24422;BME280;12600;53.326;-6.298;2023-04-07T09:09:35;101666.63;;;17.89;46.22
24422;BME280;12600;53.326;-6.298;2023-04-07T09:12:26;101674.53;;;18.00;45.80
24422;BME280;12600;53.326;-6.298;2023-04-07T09:15:17;101674.34;;;18.05;45.37
24422;BME280;12600;53.326;-6.298;2023-04-07T09:18:07;101671.94;;;17.95;44.81
24422;BME280;12600;53.326;-6.298;2023-04-07T09:21:01;101665.97;;;17.93;44.44
24422;BME280;12600;53.326;-6.298;2023-04-07T09:23:51;101671.31;;;17.98;44.67
24422;BME280;12600;53.326;-6.298;2023-04-07T09:26:40;101679.97;;;18.17;44.54
24422;BME280;12600;53.326;-6.298;2023-04-07T09:29:29;101680.84;;;18.30;44.63
24422;BME280;12600;53.326;-6.298;2023-04-07T09:32:35;101671.81;;;18.41;44.46
24422;BME280;12600;53.326;-6.298;2023-04-07T09:35:26;101677.16;;;18.47;44.56
24422;BME280;12600;53.326;-6.298;2023-04-07T09:38:17;101673.75;;;18.41;44.45
24422;BME280;12600;53.326;-6.298;2023-04-07T09:41:07;101672.81;;;18.16;44.46
24422;BME280;12600;53.326;-6.298;2023-04-07T09:43:57;101665.28;;;17.96;44.85
24422;BME280;12600;53.326;-6.298;2023-04-07T09:46:51;101665.91;;;18.01;45.46
24422;BME280;12600;53.326;-6.298;2023-04-07T09:49:52;101677.28;;;18.29;45.80
24422;BME280;12600;53.326;-6.298;2023-04-07T09:52:51;101674.44;;;18.59;45.69
24422;BME280;12600;53.326;-6.298;2023-04-07T09:55:41;101673.56;;;18.88;45.34
24422;BME280;12600;53.326;-6.298;2023-04-07T09:58:33;101673.44;;;19.17;45.37
24422;BME280;12600;53.326;-6.298;2023-04-07T10:01:23;101676.25;;;19.09;44.43
24422;BME280;12600;53.326;-6.298;2023-04-07T10:04:12;101685.91;;;18.90;44.25
24422;BME280;12600;53.326;-6.298;2023-04-07T10:07:04;101669.25;;;18.78;44.24
24422;BME280;12600;53.326;-6.298;2023-04-07T10:09:54;101676.41;;;18.79;44.56
24422;BME280;12600;53.326;-6.298;2023-04-07T10:12:43;101675.22;;;19.01;45.33
24422;BME280;12600;53.326;-6.298;2023-04-07T10:15:33;101673.50;;;19.09;44.02
24422;BME280;12600;53.326;-6.298;2023-04-07T10:18:28;101676.81;;;19.35;43.80
24422;BME280;12600;53.326;-6.298;2023-04-07T10:21:18;101681.44;;;19.55;43.54
24422;BME280;12600;53.326;-6.298;2023-04-07T10:24:25;101673.97;;;19.68;42.35
24422;BME280;12600;53.326;-6.298;2023-04-07T10:27:23;101676.59;;;19.52;41.99
24422;BME280;12600;53.326;-6.298;2023-04-07T10:30:21;101663.59;;;19.77;42.05
24422;BME280;12600;53.326;-6.298;2023-04-07T10:33:12;101667.22;;;20.30;42.00
24422;BME280;12600;53.326;-6.298;2023-04-07T10:36:05;101669.25;;;20.86;41.62
24422;BME280;12600;53.326;-6.298;2023-04-07T10:39:21;101671.72;;;21.03;40.00
24422;BME280;12600;53.326;-6.298;2023-04-07T10:42:44;101671.03;;;21.22;39.40
24422;BME280;12600;53.326;-6.298;2023-04-07T10:45:55;101668.81;;;21.28;38.35
24422;BME280;12600;53.326;-6.298;2023-04-07T10:49:07;101664.88;;;21.60;38.48
24422;BME280;12600;53.326;-6.298;2023-04-07T10:52:22;101658.34;;;21.68;38.11
24422;BME280;12600;53.326;-6.298;2023-04-07T10:55:45;101654.22;;;21.46;37.47
24422;BME280;12600;53.326;-6.298;2023-04-07T10:58:35;101659.50;;;21.67;38.46
24422;BME280;12600;53.326;-6.298;2023-04-07T11:01:24;101651.34;;;21.59;37.93
24422;BME280;12600;53.326;-6.298;2023-04-07T11:04:14;101654.91;;;21.91;38.58
24422;BME280;12600;53.326;-6.298;2023-04-07T11:07:04;101652.66;;;21.81;37.82
24422;BME280;12600;53.326;-6.298;2023-04-07T11:10:08;101652.72;;;22.00;38.27
24422;BME280;12600;53.326;-6.298;2023-04-07T11:13:05;101651.38;;;22.10;38.10
24422;BME280;12600;53.326;-6.298;2023-04-07T11:15:55;101648.59;;;22.10;37.86
24422;BME280;12600;53.326;-6.298;2023-04-07T11:18:45;101629.25;;;22.17;37.87
24422;BME280;12600;53.326;-6.298;2023-04-07T11:21:35;101643.81;;;22.10;37.93
24422;BME280;12600;53.326;-6.298;2023-04-07T11:24:31;101632.75;;;22.14;38.00
24422;BME280;12600;53.326;-6.298;2023-04-07T11:27:21;101645.00;;;22.28;37.80
24422;BME280;12600;53.326;-6.298;2023-04-07T11:30:14;101622.31;;;22.26;37.66
24422;BME280;12600;53.326;-6.298;2023-04-07T11:33:05;101643.97;;;21.66;38.39
24422;BME280;12600;53.326;-6.298;2023-04-07T11:35:57;101639.06;;;21.00;39.38
24422;BME280;12600;53.326;-6.298;2023-04-07T11:38:47;101645.81;;;20.31;40.84
24422;BME280;12600;53.326;-6.298;2023-04-07T11:41:45;101626.91;;;19.96;41.99
24422;BME280;12600;53.326;-6.298;2023-04-07T11:44:44;101642.09;;;19.74;43.24
24422;BME280;12600;53.326;-6.298;2023-04-07T11:47:36;101636.38;;;19.46;43.55
24422;BME280;12600;53.326;-6.298;2023-04-07T11:50:39;101637.31;;;19.26;44.07
24422;BME280;12600;53.326;-6.298;2023-04-07T11:53:32;101629.44;;;19.28;44.15
24422;BME280;12600;53.326;-6.298;2023-04-07T11:56:21;101645.97;;;18.91;44.90
24422;BME280;12600;53.326;-6.298;2023-04-07T11:59:23;101644.72;;;18.89;45.82
24422;BME280;12600;53.326;-6.298;2023-04-07T12:02:30;101616.03;;;19.06;45.53
24422;BME280;12600;53.326;-6.298;2023-04-07T12:05:22;101636.78;;;19.81;44.57
24422;BME280;12600;53.326;-6.298;2023-04-07T12:08:12;101637.44;;;20.03;43.75
24422;BME280;12600;53.326;-6.298;2023-04-07T12:11:03;101629.38;;;19.61;43.53
24422;BME280;12600;53.326;-6.298;2023-04-07T12:13:52;101629.25;;;19.33;44.02
24422;BME280;12600;53.326;-6.298;2023-04-07T12:16:42;101644.59;;;18.85;44.42
24422;BME280;12600;53.326;-6.298;2023-04-07T12:19:32;101647.47;;;18.89;45.05
24422;BME280;12600;53.326;-6.298;2023-04-07T12:22:24;101644.16;;;18.95;45.53
24422;BME280;12600;53.326;-6.298;2023-04-07T12:25:14;101658.03;;;19.08;44.21
24422;BME280;12600;53.326;-6.298;2023-04-07T12:28:04;101643.75;;;19.30;43.73
24422;BME280;12600;53.326;-6.298;2023-04-07T12:30:54;101633.88;;;19.78;43.06
24422;BME280;12600;53.326;-6.298;2023-04-07T12:33:43;101635.75;;;20.38;42.28
24422;BME280;12600;53.326;-6.298;2023-04-07T12:36:33;101624.22;;;20.64;40.71
24422;BME280;12600;53.326;-6.298;2023-04-07T12:39:24;101643.28;;;20.94;41.02
24422;BME280;12600;53.326;-6.298;2023-04-07T12:42:14;101636.06;;;20.77;40.50
24422;BME280;12600;53.326;-6.298;2023-04-07T12:45:05;101651.06;;;20.88;39.81
24422;BME280;12600;53.326;-6.298;2023-04-07T12:47:54;101644.19;;;21.42;39.33
24422;BME280;12600;53.326;-6.298;2023-04-07T12:50:43;101648.47;;;22.22;38.45
24422;BME280;12600;53.326;-6.298;2023-04-07T12:53:33;101637.03;;;22.27;37.70
24422;BME280;12600;53.326;-6.298;2023-04-07T12:56:23;101631.25;;;22.00;38.04
24422;BME280;12600;53.326;-6.298;2023-04-07T12:59:13;101640.13;;;21.39;38.87
24422;BME280;12600;53.326;-6.298;2023-04-07T13:02:03;101634.28;;;20.85;40.09
24422;BME280;12600;53.326;-6.298;2023-04-07T13:04:53;101623.91;;;20.01;41.13
24422;BME280;12600;53.326;-6.298;2023-04-07T13:07:42;101647.25;;;19.51;42.39
24422;BME280;12600;53.326;-6.298;2023-04-07T13:10:31;101632.78;;;19.09;42.95
24422;BME280;12600;53.326;-6.298;2023-04-07T13:13:22;101636.22;;;18.73;42.20
24422;BME280;12600;53.326;-6.298;2023-04-07T13:16:12;101637.28;;;18.60;42.45
24422;BME280;12600;53.326;-6.298;2023-04-07T13:19:01;101635.41;;;18.52;42.97
24422;BME280;12600;53.326;-6.298;2023-04-07T13:21:50;101639.00;;;18.52;43.35
24422;BME280;12600;53.326;-6.298;2023-04-07T13:24:40;101639.41;;;18.63;43.19
24422;BME280;12600;53.326;-6.298;2023-04-07T13:27:29;101629.47;;;18.62;43.21
24422;BME280;12600;53.326;-6.298;2023-04-07T13:30:20;101629.44;;;18.70;42.33
24422;BME280;12600;53.326;-6.298;2023-04-07T13:33:09;101637.28;;;19.14;42.07
24422;BME280;12600;53.326;-6.298;2023-04-07T13:35:58;101630.03;;;19.46;40.68
24422;BME280;12600;53.326;-6.298;2023-04-07T13:38:48;101620.91;;;19.45;39.50
24422;BME280;12600;53.326;-6.298;2023-04-07T13:41:37;101636.97;;;19.40;39.32
24422;BME280;12600;53.326;-6.298;2023-04-07T13:44:27;101625.06;;;19.39;39.49
24422;BME280;12600;53.326;-6.298;2023-04-07T13:47:18;101562.69;;;18.96;39.89
24422;BME280;12600;53.326;-6.298;2023-04-07T13:50:09;101617.63;;;19.07;39.38
24422;BME280;12600;53.326;-6.298;2023-04-07T13:52:58;101621.38;;;18.78;38.97
24422;BME280;12600;53.326;-6.298;2023-04-07T13:55:47;101620.63;;;18.68;39.10
24422;BME280;12600;53.326;-6.298;2023-04-07T13:58:37;101619.56;;;18.61;39.64
24422;BME280;12600;53.326;-6.298;2023-04-07T14:01:26;101617.88;;;18.68;39.47
24422;BME280;12600;53.326;-6.298;2023-04-07T14:04:18;101617.00;;;19.34;39.18
24422;BME280;12600;53.326;-6.298;2023-04-07T14:07:07;101617.56;;;19.89;37.37
24422;BME280;12600;53.326;-6.298;2023-04-07T14:09:57;101614.34;;;20.39;36.60
24422;BME280;12600;53.326;-6.298;2023-04-07T14:12:46;101619.19;;;20.54;35.56
24422;BME280;12600;53.326;-6.298;2023-04-07T14:15:35;101607.81;;;20.59;35.54
24422;BME280;12600;53.326;-6.298;2023-04-07T14:18:25;101622.50;;;20.60;35.62
24422;BME280;12600;53.326;-6.298;2023-04-07T14:21:16;101614.22;;;20.35;34.95
24422;BME280;12600;53.326;-6.298;2023-04-07T14:24:05;101612.25;;;20.48;35.59
24422;BME280;12600;53.326;-6.298;2023-04-07T14:26:54;101611.69;;;20.71;35.65
24422;BME280;12600;53.326;-6.298;2023-04-07T14:29:44;101601.75;;;20.70;34.97
24422;BME280;12600;53.326;-6.298;2023-04-07T14:32:33;101600.91;;;20.53;34.85
24422;BME280;12600;53.326;-6.298;2023-04-07T14:35:23;101604.66;;;20.61;35.13
24422;BME280;12600;53.326;-6.298;2023-04-07T14:38:14;101608.28;;;20.61;34.98
24422;BME280;12600;53.326;-6.298;2023-04-07T14:41:03;101611.09;;;20.49;34.40
24422;BME280;12600;53.326;-6.298;2023-04-07T14:43:57;101598.16;;;20.29;34.91
24422;BME280;12600;53.326;-6.298;2023-04-07T14:46:46;101598.47;;;20.11;34.68
24422;BME280;12600;53.326;-6.298;2023-04-07T14:49:35;101597.78;;;20.15;35.10
24422;BME280;12600;53.326;-6.298;2023-04-07T14:52:25;101591.72;;;20.25;34.23
24422;BME280;12600;53.326;-6.298;2023-04-07T14:55:15;101587.84;;;20.42;34.92